Time,TemperatureF,DewpointF,PressureIn,WindDirection,WindDirectionDegrees,WindSpeedMPH,WindSpeedGustMPH,Humidity,HourlyPrecipIn,Conditions,Clouds,dailyrainin,SoftwareType,DateUTC
2014-01-21 00:00:00,63.2,58.6,30.04,North,10,0.0,0.0,85,0.00,,,0.00,Wunderground v.1.15,2014-01-21 05:00:00,
2014-01-21 00:05:00,63.1,58.5,30.03,North,10,0.0,0.0,85,0.00,,,0.00,Wunderground v.1.15,2014-01-21 05:05:00,
2014-01-21 00:10:00,63.1,58.5,30.03,NNW,333,0.0,0.0,85,0.00,,,0.00,Wunderground v.1.15,2014-01-21 05:10:00,
2014-01-21 00:15:00,63.0,58.4,30.03,NW,314,0.0,0.0,85,0.00,,,0.00,Wunderground v.1.15,2014-01-21 05:15:00,
2014-01-21 00:20:00,63.0,58.4,30.03,North,11,0.0,0.0,85,0.00,,,0.00,Wunderground v.1.15,2014-01-21 05:20:00,
2014-01-21 00:25:00,62.9,58.3,30.02,NNW,335,0.0,0.0,85,0.00,,,0.00,Wunderground v.1.15,2014-01-21 05:25:00,
2014-01-21 00:30:00,62.8,58.2,30.03,NW,320,0.0,0.0,85,0.00,,,0.00,Wunderground v.1.15,2014-01-21 05:30:00,
2014-01-21 00:35:00,62.7,58.1,30.03,NW,320,0.0,1.0,85,0.00,,,0.00,Wunderground v.1.15,2014-01-21 05:35:00,
2014-01-21 00:40:00,62.5,57.9,30.03,NW,321,0.0,1.0,85,0.00,,,0.00,Wunderground v.1.15,2014-01-21 05:40:00,
2014-01-21 00:45:00,62.4,57.8,30.03,NW,316,0.0,1.0,85,0.00,,,0.00,Wunderground v.1.15,2014-01-21 05:45:00,
2014-01-21 00:50:00,62.2,57.6,30.03,NW,316,0.0,1.0,85,0.00,,,0.00,Wunderground v.1.15,2014-01-21 05:50:00,
2014-01-21 00:55:00,62.1,57.5,30.03,NNW,333,0.0,1.0,85,0.00,,,0.00,Wunderground v.1.15,2014-01-21 05:55:00,
2014-01-21 01:05:00,62.0,57.4,30.02,NNW,331,0.0,0.0,85,0.00,,,0.00,Wunderground v.1.15,2014-01-21 06:05:00,
2014-01-21 01:10:00,62.0,57.4,30.02,NW,326,0.0,0.0,85,0.00,,,0.00,Wunderground v.1.15,2014-01-21 06:10:00,
2014-01-21 01:15:00,62.0,57.4,30.02,North,357,0.0,0.0,85,0.00,,,0.00,Wunderground v.1.15,2014-01-21 06:15:00,
2014-01-21 01:20:00,62.0,57.4,30.02,NNE,20,0.0,0.0,85,0.00,,,0.00,Wunderground v.1.15,2014-01-21 06:20:00,
2014-01-21 01:25:00,62.1,57.2,30.02,NNE,27,0.0,0.0,84,0.00,,,0.00,Wunderground v.1.15,2014-01-21 06:25:00,
2014-01-21 01:30:00,62.1,57.2,30.02,NW,309,0.0,0.0,84,0.00,,,0.00,Wunderground v.1.15,2014-01-21 06:30:00,
2014-01-21 01:35:00,62.0,57.1,30.02,NW,309,0.0,1.0,84,0.00,,,0.00,Wunderground v.1.15,2014-01-21 06:35:00,
2014-01-21 01:40:00,62.0,57.1,30.02,NNW,344,0.0,1.0,84,0.00,,,0.00,Wunderground v.1.15,2014-01-21 06:40:00,
2014-01-21 01:45:00,62.0,57.1,30.02,North,11,0.0,1.0,84,0.00,,,0.00,Wunderground v.1.15,2014-01-21 06:45:00,
2014-01-21 01:50:00,62.0,57.1,30.02,NNW,336,0.0,1.0,84,0.00,,,0.00,Wunderground v.1.15,2014-01-21 06:50:00,
2014-01-21 01:55:00,61.9,57.0,30.02,North,358,0.0,1.0,84,0.00,,,0.00,Wunderground v.1.15,2014-01-21 06:55:00,
2014-01-21 02:00:00,61.8,56.9,30.01,NNW,342,0.0,0.0,84,0.00,,,0.00,Wunderground v.1.15,2014-01-21 07:00:00,
2014-01-21 02:05:00,61.7,57.1,30.01,North,357,0.0,0.0,85,0.00,,,0.00,Wunderground v.1.15,2014-01-21 07:05:00,
2014-01-21 02:10:00,61.6,57.0,30.01,NNE,18,0.0,0.0,85,0.00,,,0.00,Wunderground v.1.15,2014-01-21 07:10:00,
2014-01-21 02:15:00,61.7,57.1,30.01,NNE,16,0.0,0.0,85,0.00,,,0.00,Wunderground v.1.15,2014-01-21 07:15:00,
2014-01-21 02:25:00,61.8,57.2,30.00,North,11,0.0,0.0,85,0.00,,,0.00,Wunderground v.1.15,2014-01-21 07:25:00,
2014-01-21 02:30:00,61.7,57.1,30.00,North,11,0.0,0.0,85,0.00,,,0.00,Wunderground v.1.15,2014-01-21 07:30:00,
2014-01-21 02:35:00,61.6,57.0,30.00,North,11,0.0,2.0,85,0.00,,,0.00,Wunderground v.1.15,2014-01-21 07:35:00,
2014-01-21 02:40:00,61.4,56.8,30.00,North,11,0.0,2.0,85,0.00,,,0.00,Wunderground v.1.15,2014-01-21 07:40:00,
2014-01-21 02:45:00,61.2,56.7,30.00,North,11,0.0,2.0,85,0.00,,,0.00,Wunderground v.1.15,2014-01-21 07:45:00,
2014-01-21 02:50:00,61.0,56.8,30.00,North,11,0.0,2.0,86,0.00,,,0.00,Wunderground v.1.15,2014-01-21 07:50:00,
2014-01-21 02:55:00,60.8,56.6,29.99,North,352,0.0,2.0,86,0.00,,,0.00,Wunderground v.1.15,2014-01-21 07:55:00,
2014-01-21 03:05:00,60.7,56.5,29.99,NW,323,0.0,0.0,86,0.00,,,0.00,Wunderground v.1.15,2014-01-21 08:05:00,
2014-01-21 03:10:00,60.7,56.8,29.99,NW,324,0.0,0.0,87,0.00,,,0.00,Wunderground v.1.15,2014-01-21 08:10:00,
2014-01-21 03:15:00,60.6,56.7,29.98,NW,324,0.0,0.0,87,0.00,,,0.00,Wunderground v.1.15,2014-01-21 08:15:00,
2014-01-21 03:20:00,60.5,56.6,29.99,NW,324,0.0,0.0,87,0.00,,,0.00,Wunderground v.1.15,2014-01-21 08:20:00,
2014-01-21 03:25:00,60.5,56.6,29.99,NW,324,0.0,0.0,87,0.00,,,0.00,Wunderground v.1.15,2014-01-21 08:25:00,
2014-01-21 03:30:00,60.5,56.6,29.99,WNW,303,0.0,0.0,87,0.00,,,0.00,Wunderground v.1.15,2014-01-21 08:30:00,
2014-01-21 03:35:00,60.5,56.6,29.99,NNE,30,0.0,2.0,87,0.00,,,0.00,Wunderground v.1.15,2014-01-21 08:35:00,
2014-01-21 03:40:00,60.5,56.6,29.99,NW,325,0.0,2.0,87,0.00,,,0.00,Wunderground v.1.15,2014-01-21 08:40:00,
2014-01-21 03:45:00,60.4,56.5,29.99,NW,325,0.0,2.0,87,0.00,,,0.00,Wunderground v.1.15,2014-01-21 08:45:00,
2014-01-21 03:50:00,60.4,56.5,29.99,NE,41,0.0,2.0,87,0.00,,,0.00,Wunderground v.1.15,2014-01-21 08:50:00,
2014-01-21 03:55:00,60.3,56.4,29.99,NE,41,0.0,2.0,87,0.00,,,0.00,Wunderground v.1.15,2014-01-21 08:55:00,
2014-01-21 04:05:00,60.3,56.4,29.99,NE,41,0.0,0.0,87,0.00,,,0.00,Wunderground v.1.15,2014-01-21 09:05:00,
2014-01-21 04:10:00,60.2,56.6,29.98,NE,41,0.0,0.0,88,0.00,,,0.00,Wunderground v.1.15,2014-01-21 09:10:00,
2014-01-21 04:15:00,60.3,56.4,29.98,NW,307,0.0,0.0,87,0.00,,,0.00,Wunderground v.1.15,2014-01-21 09:15:00,
2014-01-21 04:20:00,60.2,56.3,29.98,NW,308,0.0,0.0,87,0.00,,,0.00,Wunderground v.1.15,2014-01-21 09:20:00,
2014-01-21 04:25:00,60.1,56.2,29.98,NW,308,0.0,0.0,87,0.00,,,0.00,Wunderground v.1.15,2014-01-21 09:25:00,
2014-01-21 04:30:00,60.2,56.6,29.98,NW,308,0.0,0.0,88,0.00,,,0.00,Wunderground v.1.15,2014-01-21 09:30:00,
2014-01-21 04:35:00,60.3,56.7,29.98,NW,308,0.0,1.0,88,0.00,,,0.00,Wunderground v.1.15,2014-01-21 09:35:00,
2014-01-21 04:40:00,60.5,56.9,29.98,North,10,0.0,1.0,88,0.00,,,0.00,Wunderground v.1.15,2014-01-21 09:40:00,
2014-01-21 04:45:00,60.8,56.9,29.98,NNE,31,0.0,1.0,87,0.00,,,0.00,Wunderground v.1.15,2014-01-21 09:45:00,
2014-01-21 04:50:00,61.1,57.2,29.98,NW,312,0.0,1.0,87,0.00,,,0.00,Wunderground v.1.15,2014-01-21 09:50:00,
2014-01-21 04:55:00,61.4,57.2,29.98,NW,325,0.0,1.0,86,0.00,,,0.00,Wunderground v.1.15,2014-01-21 09:55:00,
2014-01-21 05:00:00,61.6,57.4,29.98,WNW,297,0.0,0.0,86,0.00,,,0.00,Wunderground v.1.15,2014-01-21 10:00:00,
2014-01-21 05:05:00,61.6,57.0,29.98,WNW,297,0.0,0.0,85,0.00,,,0.00,Wunderground v.1.15,2014-01-21 10:05:00,
2014-01-21 05:10:00,61.8,57.2,29.98,NNW,339,0.0,0.0,85,0.00,,,0.00,Wunderground v.1.15,2014-01-21 10:10:00,
2014-01-21 05:20:00,62.0,57.4,29.98,WNW,286,0.0,0.0,85,0.00,,,0.00,Wunderground v.1.15,2014-01-21 10:20:00,
2014-01-21 05:25:00,62.1,57.5,29.98,North,352,0.0,0.0,85,0.00,,,0.00,Wunderground v.1.15,2014-01-21 10:25:00,
2014-01-21 05:30:00,62.2,57.3,29.98,NNE,12,0.0,0.0,84,0.00,,,0.00,Wunderground v.1.15,2014-01-21 10:30:00,
2014-01-21 05:35:00,62.2,57.3,29.98,NNE,22,0.0,2.0,84,0.00,,,0.00,Wunderground v.1.15,2014-01-21 10:35:00,
2014-01-21 05:40:00,62.3,57.4,29.99,NNE,20,0.0,2.0,84,0.00,,,0.00,Wunderground v.1.15,2014-01-21 10:40:00,
2014-01-21 05:45:00,62.3,57.4,29.99,NNE,20,0.0,2.0,84,0.00,,,0.00,Wunderground v.1.15,2014-01-21 10:45:00,
2014-01-21 05:50:00,62.4,57.5,29.99,NNE,20,0.0,2.0,84,0.00,,,0.00,Wunderground v.1.15,2014-01-21 10:50:00,
2014-01-21 05:55:00,62.3,57.4,29.99,NNE,20,0.0,2.0,84,0.00,,,0.00,Wunderground v.1.15,2014-01-21 10:55:00,
2014-01-21 06:00:00,62.2,57.3,29.99,NNE,20,0.0,0.0,84,0.00,,,0.00,Wunderground v.1.15,2014-01-21 11:00:00,
2014-01-21 06:10:00,62.2,57.6,29.99,NNE,20,0.0,0.0,85,0.00,,,0.00,Wunderground v.1.15,2014-01-21 11:10:00,
2014-01-21 06:15:00,62.2,57.6,29.99,NNW,347,0.0,0.0,85,0.00,,,0.00,Wunderground v.1.15,2014-01-21 11:15:00,
2014-01-21 06:20:00,62.2,57.6,29.99,NNW,347,0.0,0.0,85,0.00,,,0.00,Wunderground v.1.15,2014-01-21 11:20:00,
2014-01-21 06:25:00,62.2,57.6,29.99,NNW,344,0.0,0.0,85,0.00,,,0.00,Wunderground v.1.15,2014-01-21 11:25:00,
2014-01-21 06:30:00,62.3,57.7,29.99,NNW,344,0.0,0.0,85,0.00,,,0.00,Wunderground v.1.15,2014-01-21 11:30:00,
2014-01-21 06:35:00,62.4,57.5,29.99,NNW,344,0.0,1.0,84,0.00,,,0.00,Wunderground v.1.15,2014-01-21 11:35:00,
2014-01-21 06:40:00,62.5,57.6,29.99,NNW,344,0.0,1.0,84,0.00,,,0.00,Wunderground v.1.15,2014-01-21 11:40:00,
2014-01-21 06:45:00,62.5,57.6,29.99,NNW,344,0.0,1.0,84,0.00,,,0.00,Wunderground v.1.15,2014-01-21 11:45:00,
2014-01-21 06:50:00,62.5,57.6,29.99,NNW,344,0.0,1.0,84,0.00,,,0.00,Wunderground v.1.15,2014-01-21 11:50:00,
2014-01-21 06:55:00,62.5,57.6,29.99,NNW,344,0.0,1.0,84,0.00,,,0.00,Wunderground v.1.15,2014-01-21 11:55:00,
2014-01-21 07:00:00,62.4,57.5,29.99,NNW,344,0.0,0.0,84,0.00,,,0.00,Wunderground v.1.15,2014-01-21 12:00:00,
2014-01-21 07:10:00,62.6,57.7,29.99,NNW,344,0.0,0.0,84,0.00,,,0.00,Wunderground v.1.15,2014-01-21 12:10:00,
2014-01-21 07:20:00,62.6,58.0,29.99,NNW,344,0.0,0.0,85,0.00,,,0.00,Wunderground v.1.15,2014-01-21 12:20:00,
2014-01-21 07:25:00,62.7,57.8,29.99,NNE,18,0.0,0.0,84,0.00,,,0.00,Wunderground v.1.15,2014-01-21 12:25:00,
2014-01-21 07:30:00,63.1,57.9,29.99,NE,52,0.0,0.0,83,0.00,,,0.00,Wunderground v.1.15,2014-01-21 12:30:00,
2014-01-21 07:35:00,63.4,58.1,29.98,NNE,26,0.0,1.0,83,0.00,,,0.00,Wunderground v.1.15,2014-01-21 12:35:00,
2014-01-21 07:40:00,63.7,58.1,29.98,NNE,20,0.0,1.0,82,0.00,,,0.00,Wunderground v.1.15,2014-01-21 12:40:00,
2014-01-21 07:45:00,63.9,58.3,29.98,NE,44,0.0,1.0,82,0.00,,,0.00,Wunderground v.1.15,2014-01-21 12:45:00,
2014-01-21 07:50:00,64.1,58.5,29.98,NNE,23,0.0,1.0,82,0.00,,,0.00,Wunderground v.1.15,2014-01-21 12:50:00,
2014-01-21 07:55:00,64.2,58.2,29.98,NNE,22,1.0,1.0,81,0.00,,,0.00,Wunderground v.1.15,2014-01-21 12:55:00,
2014-01-21 08:00:00,64.4,58.4,29.98,NNE,12,1.0,2.0,81,0.00,,,0.00,Wunderground v.1.15,2014-01-21 13:00:00,
2014-01-21 08:10:00,64.6,59.0,29.99,NE,45,1.0,1.0,82,0.00,,,0.00,Wunderground v.1.15,2014-01-21 13:10:00,
2014-01-21 08:15:00,64.7,59.1,29.99,ESE,110,1.0,1.0,82,0.00,,,0.00,Wunderground v.1.15,2014-01-21 13:15:00,
2014-01-21 08:20:00,65.0,59.4,29.99,North,5,1.0,1.0,82,0.00,,,0.00,Wunderground v.1.15,2014-01-21 13:20:00,
2014-01-21 08:25:00,65.4,59.8,29.99,NNE,28,1.0,1.0,82,0.00,,,0.00,Wunderground v.1.15,2014-01-21 13:25:00,
2014-01-21 08:30:00,65.7,60.1,29.99,NNE,15,2.0,2.0,82,0.00,,,0.00,Wunderground v.1.15,2014-01-21 13:30:00,
2014-01-21 08:35:00,66.0,60.3,29.99,NNE,25,2.0,4.0,82,0.00,,,0.00,Wunderground v.1.15,2014-01-21 13:35:00,
2014-01-21 08:40:00,66.1,60.1,29.99,NNE,29,1.0,4.0,81,0.00,,,0.00,Wunderground v.1.15,2014-01-21 13:40:00,
2014-01-21 08:45:00,66.2,59.8,29.99,NE,52,2.0,4.0,80,0.00,,,0.00,Wunderground v.1.15,2014-01-21 13:45:00,
2014-01-21 08:50:00,66.1,60.1,30.00,NE,49,2.0,4.0,81,0.00,,,0.00,Wunderground v.1.15,2014-01-21 13:50:00,
2014-01-21 08:55:00,66.1,60.1,30.00,North,3,1.0,4.0,81,0.00,,,0.00,Wunderground v.1.15,2014-01-21 13:55:00,
2014-01-21 09:00:00,66.1,60.1,30.00,North,6,1.0,1.0,81,0.00,,,0.00,Wunderground v.1.15,2014-01-21 14:00:00,
2014-01-21 09:05:00,66.1,60.1,30.00,NE,49,2.0,5.0,81,0.00,,,0.00,Wunderground v.1.15,2014-01-21 14:05:00,
2014-01-21 09:10:00,66.0,60.3,30.00,NE,53,2.0,2.0,82,0.00,,,0.00,Wunderground v.1.15,2014-01-21 14:10:00,
2014-01-21 09:15:00,65.7,60.4,30.00,NW,315,2.0,2.0,83,0.00,,,0.00,Wunderground v.1.15,2014-01-21 14:15:00,
2014-01-21 09:20:00,65.5,60.5,30.00,East,98,2.0,2.0,84,0.00,,,0.00,Wunderground v.1.15,2014-01-21 14:20:00,
2014-01-21 09:25:00,65.5,60.9,30.01,ENE,75,2.0,2.0,85,0.00,,,0.00,Wunderground v.1.15,2014-01-21 14:25:00,
2014-01-21 09:30:00,65.5,60.9,30.01,ENE,70,2.0,2.0,85,0.00,,,0.00,Wunderground v.1.15,2014-01-21 14:30:00,
2014-01-21 09:35:00,65.6,61.0,30.01,SE,126,2.0,7.0,85,0.00,,,0.00,Wunderground v.1.15,2014-01-21 14:35:00,
2014-01-21 09:40:00,65.8,61.2,30.01,ESE,120,2.0,7.0,85,0.00,,,0.00,Wunderground v.1.15,2014-01-21 14:40:00,
2014-01-21 09:45:00,65.9,61.6,30.01,ENE,72,3.0,7.0,86,0.00,,,0.00,Wunderground v.1.15,2014-01-21 14:45:00,
2014-01-21 09:50:00,66.2,61.9,30.01,ENE,72,3.0,7.0,86,0.00,,,0.00,Wunderground v.1.15,2014-01-21 14:50:00,
2014-01-21 09:55:00,66.5,62.2,30.01,SE,129,3.0,7.0,86,0.00,,,0.00,Wunderground v.1.15,2014-01-21 14:55:00,
2014-01-21 10:00:00,66.6,62.3,30.01,East,94,3.0,3.0,86,0.00,,,0.00,Wunderground v.1.15,2014-01-21 15:00:00,
2014-01-21 10:05:00,66.6,62.3,30.01,NNW,343,3.0,3.0,86,0.00,,,0.00,Wunderground v.1.15,2014-01-21 15:05:00,
2014-01-21 10:10:00,66.7,62.0,30.01,ESE,113,3.0,3.0,85,0.00,,,0.00,Wunderground v.1.15,2014-01-21 15:10:00,
2014-01-21 10:15:00,66.8,61.8,30.01,North,6,3.0,3.0,84,0.00,,,0.00,Wunderground v.1.15,2014-01-21 15:15:00,
2014-01-21 10:20:00,66.9,61.6,30.01,ENE,57,2.0,3.0,83,0.00,,,0.00,Wunderground v.1.15,2014-01-21 15:20:00,
2014-01-21 10:25:00,67.0,61.3,30.01,ENE,75,3.0,3.0,82,0.00,,,0.00,Wunderground v.1.15,2014-01-21 15:25:00,
2014-01-21 10:30:00,67.1,61.4,30.00,SE,134,3.0,3.0,82,0.00,,,0.00,Wunderground v.1.15,2014-01-21 15:30:00,
2014-01-21 10:35:00,67.5,62.2,30.00,NE,35,1.0,10.0,83,0.00,,,0.00,Wunderground v.1.15,2014-01-21 15:35:00,
2014-01-21 10:40:00,67.5,62.2,30.00,NNE,25,2.0,10.0,83,0.00,,,0.00,Wunderground v.1.15,2014-01-21 15:40:00,
2014-01-21 10:45:00,67.7,62.3,30.00,NE,48,2.0,10.0,83,0.00,,,0.00,Wunderground v.1.15,2014-01-21 15:45:00,
2014-01-21 10:50:00,68.1,62.4,30.00,East,100,2.0,10.0,82,0.00,,,0.00,Wunderground v.1.15,2014-01-21 15:50:00,
2014-01-21 10:55:00,68.3,62.6,29.99,NE,43,2.0,10.0,82,0.00,,,0.00,Wunderground v.1.15,2014-01-21 15:55:00,
2014-01-21 11:00:00,68.8,62.4,29.99,ESE,120,2.0,2.0,80,0.00,,,0.00,Wunderground v.1.15,2014-01-21 16:00:00,
2014-01-21 11:05:00,69.0,62.2,29.99,NNE,18,3.0,3.0,79,0.00,,,0.00,Wunderground v.1.15,2014-01-21 16:05:00,
2014-01-21 11:10:00,69.1,62.3,29.99,North,1,3.0,3.0,79,0.00,,,0.00,Wunderground v.1.15,2014-01-21 16:10:00,
2014-01-21 11:15:00,69.6,62.8,29.98,ENE,63,2.0,3.0,79,0.00,,,0.00,Wunderground v.1.15,2014-01-21 16:15:00,
2014-01-21 11:20:00,69.4,62.2,29.98,ENE,72,3.0,3.0,78,0.00,,,0.00,Wunderground v.1.15,2014-01-21 16:20:00,
2014-01-21 11:25:00,69.4,61.9,29.98,East,85,3.0,3.0,77,0.00,,,0.00,Wunderground v.1.15,2014-01-21 16:25:00,
2014-01-21 11:35:00,69.5,62.0,29.97,ESE,108,2.0,4.0,77,0.00,,,0.00,Wunderground v.1.15,2014-01-21 16:35:00,
2014-01-21 11:40:00,69.5,62.0,29.97,ESE,108,3.0,9.0,77,0.00,,,0.00,Wunderground v.1.15,2014-01-21 16:40:00,
2014-01-21 11:45:00,69.5,62.0,29.96,North,4,3.0,9.0,77,0.00,,,0.00,Wunderground v.1.15,2014-01-21 16:45:00,
2014-01-21 11:50:00,69.6,61.7,29.96,SSW,206,3.0,9.0,76,0.00,,,0.00,Wunderground v.1.15,2014-01-21 16:50:00,
2014-01-21 11:55:00,69.6,61.7,29.95,NNE,33,3.0,9.0,76,0.00,,,0.00,Wunderground v.1.15,2014-01-21 16:55:00,
2014-01-21 12:00:00,70.1,62.2,29.95,North,354,3.0,3.0,76,0.00,,,0.00,Wunderground v.1.15,2014-01-21 17:00:00,
2014-01-21 12:05:00,70.5,62.2,29.94,NNW,347,2.0,3.0,75,0.00,,,0.00,Wunderground v.1.15,2014-01-21 17:05:00,
2014-01-21 12:10:00,70.8,62.1,29.94,NNW,345,3.0,5.0,74,0.00,,,0.00,Wunderground v.1.15,2014-01-21 17:10:00,
2014-01-21 12:15:00,71.1,61.6,29.94,NNE,23,4.0,5.0,72,0.00,,,0.00,Wunderground v.1.15,2014-01-21 17:15:00,
2014-01-21 12:20:00,71.2,61.3,29.94,ENE,62,3.0,7.0,71,0.00,,,0.00,Wunderground v.1.15,2014-01-21 17:20:00,
2014-01-21 12:25:00,71.5,60.8,29.94,NNW,343,4.0,7.0,69,0.00,,,0.00,Wunderground v.1.15,2014-01-21 17:25:00,
2014-01-21 12:30:00,71.8,61.5,29.93,NNE,13,4.0,4.0,70,0.00,,,0.00,Wunderground v.1.15,2014-01-21 17:30:00,
2014-01-21 12:35:00,72.3,61.6,29.93,NNW,335,3.0,9.0,69,0.00,,,0.00,Wunderground v.1.15,2014-01-21 17:35:00,
2014-01-21 12:40:00,72.5,60.9,29.93,NNW,344,3.0,9.0,67,0.00,,,0.00,Wunderground v.1.15,2014-01-21 17:40:00,
2014-01-21 12:45:00,72.8,61.2,29.92,West,269,4.0,9.0,67,0.00,,,0.00,Wunderground v.1.15,2014-01-21 17:45:00,
2014-01-21 12:50:00,73.5,61.0,29.92,ESE,117,3.0,3.0,65,0.00,,,0.00,Wunderground v.1.15,2014-01-21 17:50:00,
2014-01-21 12:55:00,74.0,61.5,29.92,North,11,3.0,4.0,65,0.00,,,0.00,Wunderground v.1.15,2014-01-21 17:55:00,
2014-01-21 13:00:00,74.4,61.4,29.92,North,8,3.0,3.0,64,0.00,,,0.00,Wunderground v.1.15,2014-01-21 18:00:00,
2014-01-21 13:05:00,75.1,61.2,29.92,North,4,3.0,3.0,62,0.00,,,0.00,Wunderground v.1.15,2014-01-21 18:05:00,
2014-01-21 13:10:00,74.7,61.7,29.91,NNE,13,4.0,4.0,64,0.00,,,0.00,Wunderground v.1.15,2014-01-21 18:10:00,
2014-01-21 13:15:00,74.8,61.8,29.91,North,1,4.0,7.0,64,0.00,,,0.00,Wunderground v.1.15,2014-01-21 18:15:00,
2014-01-21 13:20:00,74.6,61.6,29.91,NW,318,3.0,4.0,64,0.00,,,0.00,Wunderground v.1.15,2014-01-21 18:20:00,
2014-01-21 13:25:00,74.3,61.3,29.90,NW,309,4.0,4.0,64,0.00,,,0.00,Wunderground v.1.15,2014-01-21 18:25:00,
2014-01-21 13:35:00,74.6,61.6,29.89,NNW,337,3.0,10.0,64,0.00,,,0.00,Wunderground v.1.15,2014-01-21 18:35:00,
2014-01-21 13:40:00,74.5,60.6,29.89,WSW,252,3.0,10.0,62,0.00,,,0.00,Wunderground v.1.15,2014-01-21 18:40:00,
2014-01-21 13:45:00,74.0,59.7,29.89,SSW,208,3.0,10.0,61,0.00,,,0.00,Wunderground v.1.15,2014-01-21 18:45:00,
2014-01-21 13:50:00,73.7,59.9,29.89,ESE,110,4.0,4.0,62,0.00,,,0.00,Wunderground v.1.15,2014-01-21 18:50:00,
2014-01-21 13:55:00,73.5,59.7,29.89,South,188,5.0,5.0,62,0.00,,,0.00,Wunderground v.1.15,2014-01-21 18:55:00,
2014-01-21 14:00:00,73.9,60.5,29.89,East,79,4.0,4.0,63,0.00,,,0.00,Wunderground v.1.15,2014-01-21 19:00:00,
2014-01-21 14:05:00,73.5,59.7,29.88,WNW,285,3.0,4.0,62,0.00,,,0.00,Wunderground v.1.15,2014-01-21 19:05:00,
2014-01-21 14:10:00,73.3,59.9,29.88,West,264,4.0,4.0,63,0.00,,,0.00,Wunderground v.1.15,2014-01-21 19:10:00,
2014-01-21 14:15:00,73.1,59.8,29.88,ENE,63,4.0,6.0,63,0.00,,,0.00,Wunderground v.1.15,2014-01-21 19:15:00,
2014-01-21 14:20:00,72.9,58.7,29.88,NNW,342,5.0,5.0,61,0.00,,,0.00,Wunderground v.1.15,2014-01-21 19:20:00,
2014-01-21 14:25:00,72.9,58.7,29.88,NW,316,5.0,5.0,61,0.00,,,0.00,Wunderground v.1.15,2014-01-21 19:25:00,
2014-01-21 14:30:00,73.0,58.8,29.87,NNE,23,4.0,4.0,61,0.00,,,0.00,Wunderground v.1.15,2014-01-21 19:30:00,
2014-01-21 14:35:00,73.0,59.2,29.88,NW,316,3.0,5.0,62,0.00,,,0.00,Wunderground v.1.15,2014-01-21 19:35:00,
2014-01-21 14:40:00,73.3,59.5,29.88,West,281,4.0,11.0,62,0.00,,,0.00,Wunderground v.1.15,2014-01-21 19:40:00,
2014-01-21 14:45:00,73.3,59.9,29.87,East,86,4.0,11.0,63,0.00,,,0.00,Wunderground v.1.15,2014-01-21 19:45:00,
2014-01-21 14:50:00,73.1,60.6,29.88,ENE,75,4.0,4.0,65,0.00,,,0.00,Wunderground v.1.15,2014-01-21 19:50:00,
2014-01-21 14:55:00,72.7,61.5,29.88,ESE,120,3.0,11.0,68,0.00,,,0.00,Wunderground v.1.15,2014-01-21 19:55:00,
2014-01-21 15:00:00,71.7,61.0,29.88,ENE,72,4.0,4.0,69,0.00,,,0.00,Wunderground v.1.15,2014-01-21 20:00:00,
2014-01-21 15:05:00,71.0,59.5,29.87,East,86,4.0,13.0,67,0.00,,,0.00,Wunderground v.1.15,2014-01-21 20:05:00,
2014-01-21 15:10:00,70.7,58.8,29.87,ENE,70,6.0,7.0,66,0.00,,,0.00,Wunderground v.1.15,2014-01-21 20:10:00,
2014-01-21 15:15:00,70.5,59.4,29.88,ENE,72,6.0,7.0,68,0.00,,,0.00,Wunderground v.1.15,2014-01-21 20:15:00,
2014-01-21 15:20:00,70.3,58.8,29.87,North,358,3.0,7.0,67,0.00,,,0.00,Wunderground v.1.15,2014-01-21 20:20:00,
2014-01-21 15:25:00,70.3,58.8,29.87,NNW,345,3.0,7.0,67,0.00,,,0.00,Wunderground v.1.15,2014-01-21 20:25:00,
2014-01-21 15:30:00,70.2,59.1,29.87,NNE,13,4.0,4.0,68,0.00,,,0.00,Wunderground v.1.15,2014-01-21 20:30:00,
2014-01-21 15:35:00,70.1,59.5,29.87,WNW,285,3.0,13.0,69,0.00,,,0.00,Wunderground v.1.15,2014-01-21 20:35:00,
2014-01-21 15:40:00,69.8,58.8,29.87,NW,325,3.0,13.0,68,0.00,,,0.00,Wunderground v.1.15,2014-01-21 20:40:00,
2014-01-21 15:45:00,69.7,58.7,29.87,NE,48,3.0,13.0,68,0.00,,,0.00,Wunderground v.1.15,2014-01-21 20:45:00,
2014-01-21 15:50:00,69.6,59.0,29.87,NNW,332,3.0,13.0,69,0.00,,,0.00,Wunderground v.1.15,2014-01-21 20:50:00,
2014-01-21 15:55:00,69.4,58.8,29.87,North,5,3.0,13.0,69,0.00,,,0.00,Wunderground v.1.15,2014-01-21 20:55:00,
2014-01-21 16:00:00,69.2,58.6,29.87,NNE,32,4.0,4.0,69,0.00,,,0.00,Wunderground v.1.15,2014-01-21 21:00:00,
2014-01-21 16:10:00,69.1,58.5,29.86,North,8,3.0,5.0,69,0.00,,,0.00,Wunderground v.1.15,2014-01-21 21:10:00,
2014-01-21 16:15:00,69.1,58.9,29.87,WNW,287,3.0,5.0,70,0.00,,,0.00,Wunderground v.1.15,2014-01-21 21:15:00,
2014-01-21 16:20:00,69.0,58.8,29.87,North,4,3.0,4.0,70,0.00,,,0.00,Wunderground v.1.15,2014-01-21 21:20:00,
2014-01-21 16:25:00,68.9,58.7,29.87,NNE,21,2.0,5.0,70,0.00,,,0.00,Wunderground v.1.15,2014-01-21 21:25:00,
2014-01-21 16:30:00,68.8,58.2,29.87,NE,48,3.0,3.0,69,0.00,,,0.00,Wunderground v.1.15,2014-01-21 21:30:00,
2014-01-21 16:35:00,68.8,58.2,29.87,NNE,33,3.0,6.0,69,0.00,,,0.00,Wunderground v.1.15,2014-01-21 21:35:00,
2014-01-21 16:40:00,68.8,58.6,29.87,NE,41,2.0,10.0,70,0.00,,,0.00,Wunderground v.1.15,2014-01-21 21:40:00,
2014-01-21 16:45:00,68.6,58.4,29.88,NNW,347,3.0,10.0,70,0.00,,,0.00,Wunderground v.1.15,2014-01-21 21:45:00,
2014-01-21 16:50:00,68.4,58.2,29.88,North,352,3.0,3.0,70,0.00,,,0.00,Wunderground v.1.15,2014-01-21 21:50:00,
2014-01-21 16:55:00,68.4,58.2,29.88,ENE,59,3.0,10.0,70,0.00,,,0.00,Wunderground v.1.15,2014-01-21 21:55:00,
2014-01-21 17:00:00,68.2,58.4,29.88,East,89,3.0,3.0,71,0.00,,,0.00,Wunderground v.1.15,2014-01-21 22:00:00,
2014-01-21 17:05:00,68.0,58.2,29.89,North,351,3.0,5.0,71,0.00,,,0.00,Wunderground v.1.15,2014-01-21 22:05:00,
2014-01-21 17:10:00,67.8,58.1,29.89,NE,37,3.0,5.0,71,0.00,,,0.00,Wunderground v.1.15,2014-01-21 22:10:00,
2014-01-21 17:15:00,67.6,58.2,29.89,North,1,2.0,5.0,72,0.00,,,0.00,Wunderground v.1.15,2014-01-21 22:15:00,
2014-01-21 17:20:00,67.4,58.1,29.89,NW,319,3.0,3.0,72,0.00,,,0.00,Wunderground v.1.15,2014-01-21 22:20:00,
2014-01-21 17:25:00,67.3,58.0,29.89,North,349,3.0,3.0,72,0.00,,,0.00,Wunderground v.1.15,2014-01-21 22:25:00,
2014-01-21 17:30:00,67.2,58.2,29.89,WSW,257,3.0,3.0,73,0.00,,,0.00,Wunderground v.1.15,2014-01-21 22:30:00,
2014-01-21 17:35:00,66.9,58.3,29.89,North,354,3.0,6.0,74,0.00,,,0.00,Wunderground v.1.15,2014-01-21 22:35:00,
2014-01-21 17:40:00,66.7,58.1,29.88,NE,52,3.0,3.0,74,0.00,,,0.00,Wunderground v.1.15,2014-01-21 22:40:00,
2014-01-21 17:45:00,66.6,58.4,29.88,NW,326,2.0,15.0,75,0.00,,,0.00,Wunderground v.1.15,2014-01-21 22:45:00,
2014-01-21 17:50:00,66.6,58.4,29.88,NNE,20,1.0,1.0,75,0.00,,,0.00,Wunderground v.1.15,2014-01-21 22:50:00,
2014-01-21 17:55:00,66.5,58.0,29.88,North,4,2.0,2.0,74,0.00,,,0.00,Wunderground v.1.15,2014-01-21 22:55:00,
2014-01-21 18:00:00,66.4,57.9,29.88,NNE,23,2.0,2.0,74,0.00,,,0.00,Wunderground v.1.15,2014-01-21 23:00:00,
2014-01-21 18:05:00,66.2,57.7,29.88,NW,309,2.0,2.0,74,0.00,,,0.00,Wunderground v.1.15,2014-01-21 23:05:00,
2014-01-21 18:10:00,66.1,57.6,29.89,NE,39,2.0,2.0,74,0.00,,,0.00,Wunderground v.1.15,2014-01-21 23:10:00,
2014-01-21 18:15:00,65.8,57.7,29.89,ENE,57,1.0,2.0,75,0.00,,,0.00,Wunderground v.1.15,2014-01-21 23:15:00,
2014-01-21 18:20:00,65.6,57.5,29.89,North,6,1.0,1.0,75,0.00,,,0.00,Wunderground v.1.15,2014-01-21 23:20:00,
2014-01-21 18:25:00,65.5,57.4,29.89,North,4,1.0,1.0,75,0.00,,,0.00,Wunderground v.1.15,2014-01-21 23:25:00,
2014-01-21 18:30:00,65.3,57.5,29.89,WNW,303,1.0,1.0,76,0.00,,,0.00,Wunderground v.1.15,2014-01-21 23:30:00,
2014-01-21 18:35:00,65.2,57.4,29.89,NNE,12,1.0,3.0,76,0.00,,,0.00,Wunderground v.1.15,2014-01-21 23:35:00,
2014-01-21 18:40:00,65.1,57.7,29.89,NNE,30,1.0,9.0,77,0.00,,,0.00,Wunderground v.1.15,2014-01-21 23:40:00,
2014-01-21 18:45:00,65.0,57.6,29.89,NNE,23,2.0,9.0,77,0.00,,,0.00,Wunderground v.1.15,2014-01-21 23:45:00,
2014-01-21 18:50:00,64.9,57.9,29.89,SSE,166,2.0,2.0,78,0.00,,,0.00,Wunderground v.1.15,2014-01-21 23:50:00,
2014-01-21 18:55:00,64.7,58.0,29.89,NNE,25,2.0,9.0,79,0.00,,,0.00,Wunderground v.1.15,2014-01-21 23:55:00,
2014-01-21 19:00:00,64.5,58.2,29.89,NNE,29,2.0,2.0,80,0.00,,,0.00,Wunderground v.1.15,2014-01-22 00:00:00,
2014-01-21 19:05:00,64.3,58.3,29.89,NNE,20,1.0,2.0,81,0.00,,,0.00,Wunderground v.1.15,2014-01-22 00:05:00,
2014-01-21 19:10:00,64.2,58.6,29.89,NE,36,2.0,2.0,82,0.00,,,0.00,Wunderground v.1.15,2014-01-22 00:10:00,
2014-01-21 19:15:00,64.0,58.7,29.89,NE,40,2.0,2.0,83,0.00,,,0.00,Wunderground v.1.15,2014-01-22 00:15:00,
2014-01-21 19:20:00,63.8,58.9,29.89,NNE,28,2.0,2.0,84,0.00,,,0.00,Wunderground v.1.15,2014-01-22 00:20:00,
2014-01-21 19:25:00,63.6,59.0,29.89,NNE,25,2.0,2.0,85,0.00,,,0.00,Wunderground v.1.15,2014-01-22 00:25:00,
2014-01-21 19:30:00,63.4,59.1,29.89,NNE,17,2.0,3.0,86,0.00,,,0.00,Wunderground v.1.15,2014-01-22 00:30:00,
2014-01-21 19:35:00,63.3,59.4,29.89,NE,34,2.0,5.0,87,0.00,,,0.00,Wunderground v.1.15,2014-01-22 00:35:00,
2014-01-21 19:40:00,63.2,59.3,29.89,NNW,336,2.0,2.0,87,0.00,,,0.00,Wunderground v.1.15,2014-01-22 00:40:00,
2014-01-21 19:45:00,63.0,59.1,29.89,NNW,328,2.0,6.0,87,0.00,,,0.00,Wunderground v.1.15,2014-01-22 00:45:00,
2014-01-21 19:50:00,63.0,59.4,29.89,NE,37,2.0,2.0,88,0.00,,,0.00,Wunderground v.1.15,2014-01-22 00:50:00,
2014-01-21 19:55:00,62.8,59.2,29.89,North,5,1.0,6.0,88,0.00,,,0.00,Wunderground v.1.15,2014-01-22 00:55:00,
2014-01-21 20:00:00,62.7,59.1,29.89,ENE,58,1.0,1.0,88,0.00,,,0.00,Wunderground v.1.15,2014-01-22 01:00:00,
2014-01-21 20:05:00,62.6,59.3,29.89,NNE,19,1.0,1.0,89,0.00,,,0.00,Wunderground v.1.15,2014-01-22 01:05:00,
2014-01-21 20:15:00,62.4,59.1,29.89,NW,316,1.0,1.0,89,0.00,,,0.00,Wunderground v.1.15,2014-01-22 01:15:00,
2014-01-21 20:20:00,62.2,59.2,29.89,NNE,17,1.0,1.0,90,0.00,,,0.00,Wunderground v.1.15,2014-01-22 01:20:00,
2014-01-21 20:25:00,62.1,59.1,29.90,North,357,1.0,2.0,90,0.00,,,0.00,Wunderground v.1.15,2014-01-22 01:25:00,
2014-01-21 20:30:00,62.1,59.1,29.90,NNE,15,1.0,1.0,90,0.00,,,0.00,Wunderground v.1.15,2014-01-22 01:30:00,
2014-01-21 20:35:00,62.0,59.0,29.90,NNE,23,1.0,7.0,90,0.00,,,0.00,Wunderground v.1.15,2014-01-22 01:35:00,
2014-01-21 20:40:00,61.9,58.9,29.90,ENE,77,2.0,7.0,90,0.00,,,0.00,Wunderground v.1.15,2014-01-22 01:40:00,
2014-01-21 20:45:00,61.9,58.9,29.90,North,353,2.0,7.0,90,0.00,,,0.00,Wunderground v.1.15,2014-01-22 01:45:00,
2014-01-21 20:50:00,61.8,58.8,29.90,ENE,70,1.0,1.0,90,0.00,,,0.00,Wunderground v.1.15,2014-01-22 01:50:00,
2014-01-21 20:55:00,61.8,58.8,29.90,North,8,1.0,7.0,90,0.00,,,0.00,Wunderground v.1.15,2014-01-22 01:55:00,
2014-01-21 21:00:00,61.7,58.7,29.90,NE,35,1.0,2.0,90,0.00,,,0.00,Wunderground v.1.15,2014-01-22 02:00:00,
2014-01-21 21:05:00,61.7,59.0,29.90,NE,50,1.0,2.0,91,0.00,,,0.00,Wunderground v.1.15,2014-01-22 02:05:00,
2014-01-21 21:10:00,61.7,58.7,29.90,NNW,340,1.0,1.0,90,0.00,,,0.00,Wunderground v.1.15,2014-01-22 02:10:00,
2014-01-21 21:15:00,61.6,58.6,29.90,North,351,1.0,2.0,90,0.00,,,0.00,Wunderground v.1.15,2014-01-22 02:15:00,
2014-01-21 21:20:00,61.6,58.6,29.90,NNE,21,1.0,1.0,90,0.00,,,0.00,Wunderground v.1.15,2014-01-22 02:20:00,
2014-01-21 21:25:00,61.6,58.6,29.90,NE,41,2.0,2.0,90,0.00,,,0.00,Wunderground v.1.15,2014-01-22 02:25:00,
2014-01-21 21:30:00,61.7,58.7,29.90,North,8,1.0,5.0,90,0.00,,,0.00,Wunderground v.1.15,2014-01-22 02:30:00,
2014-01-21 21:35:00,61.7,58.7,29.90,NNE,15,1.0,6.0,90,0.00,,,0.00,Wunderground v.1.15,2014-01-22 02:35:00,
2014-01-21 21:40:00,61.7,58.7,29.90,NNE,26,2.0,2.0,90,0.00,,,0.00,Wunderground v.1.15,2014-01-22 02:40:00,
2014-01-21 21:45:00,61.7,58.7,29.90,NNW,337,1.0,6.0,90,0.00,,,0.00,Wunderground v.1.15,2014-01-22 02:45:00,
2014-01-21 21:50:00,61.6,58.6,29.90,NE,41,1.0,6.0,90,0.00,,,0.00,Wunderground v.1.15,2014-01-22 02:50:00,
2014-01-21 21:55:00,61.7,59.0,29.90,NE,43,1.0,6.0,91,0.00,,,0.00,Wunderground v.1.15,2014-01-22 02:55:00,
2014-01-21 22:00:00,61.7,58.7,29.90,NNW,335,2.0,2.0,90,0.00,,,0.00,Wunderground v.1.15,2014-01-22 03:00:00,
2014-01-21 22:10:00,61.8,59.1,29.90,NE,36,2.0,2.0,91,0.00,,,0.00,Wunderground v.1.15,2014-01-22 03:10:00,
2014-01-21 22:15:00,61.8,59.1,29.90,NNE,15,2.0,2.0,91,0.00,,,0.00,Wunderground v.1.15,2014-01-22 03:15:00,
2014-01-21 22:20:00,61.9,59.2,29.90,ENE,57,2.0,2.0,91,0.00,,,0.00,Wunderground v.1.15,2014-01-22 03:20:00,
2014-01-21 22:25:00,61.9,59.2,29.90,North,349,2.0,2.0,91,0.00,,,0.00,Wunderground v.1.15,2014-01-22 03:25:00,
2014-01-21 22:30:00,61.9,59.2,29.90,North,355,1.0,3.0,91,0.00,,,0.00,Wunderground v.1.15,2014-01-22 03:30:00,
2014-01-21 22:35:00,62.0,59.3,29.90,NNE,23,2.0,6.0,91,0.00,,,0.00,Wunderground v.1.15,2014-01-22 03:35:00,
2014-01-21 22:40:00,62.2,59.5,29.90,NNE,12,2.0,6.0,91,0.00,,,0.00,Wunderground v.1.15,2014-01-22 03:40:00,
2014-01-21 22:45:00,62.3,59.6,29.90,SSE,150,2.0,6.0,91,0.00,,,0.00,Wunderground v.1.15,2014-01-22 03:45:00,
2014-01-21 22:50:00,62.4,59.7,29.90,NNE,32,2.0,2.0,91,0.00,,,0.00,Wunderground v.1.15,2014-01-22 03:50:00,
2014-01-21 22:55:00,62.4,59.7,29.89,NNE,26,2.0,6.0,91,0.00,,,0.00,Wunderground v.1.15,2014-01-22 03:55:00,
2014-01-21 23:00:00,62.4,59.7,29.89,North,354,2.0,3.0,91,0.00,,,0.00,Wunderground v.1.15,2014-01-22 04:00:00,
2014-01-21 23:05:00,62.4,59.7,29.89,NNE,21,2.0,3.0,91,0.00,,,0.00,Wunderground v.1.15,2014-01-22 04:05:00,
2014-01-21 23:10:00,62.4,59.7,29.89,NE,36,2.0,2.0,91,0.00,,,0.00,Wunderground v.1.15,2014-01-22 04:10:00,
2014-01-21 23:15:00,62.4,59.7,29.89,ENE,65,2.0,3.0,91,0.00,,,0.00,Wunderground v.1.15,2014-01-22 04:15:00,
2014-01-21 23:20:00,62.3,59.6,29.89,NE,42,3.0,4.0,91,0.00,,,0.00,Wunderground v.1.15,2014-01-22 04:20:00,
2014-01-21 23:25:00,62.3,59.9,29.89,North,5,2.0,4.0,92,0.00,,,0.00,Wunderground v.1.15,2014-01-22 04:25:00,
2014-01-21 23:30:00,62.2,59.8,29.89,NE,37,2.0,3.0,92,0.00,,,0.00,Wunderground v.1.15,2014-01-22 04:30:00,
2014-01-21 23:35:00,62.0,59.6,29.89,ENE,77,2.0,8.0,92,0.00,,,0.00,Wunderground v.1.15,2014-01-22 04:35:00,
2014-01-21 23:40:00,62.0,59.6,29.88,NNE,27,2.0,8.0,92,0.00,,,0.00,Wunderground v.1.15,2014-01-22 04:40:00,
2014-01-21 23:45:00,61.9,59.5,29.88,NNE,20,2.0,8.0,92,0.00,,,0.00,Wunderground v.1.15,2014-01-22 04:45:00,
2014-01-21 23:50:00,61.8,59.8,29.88,NE,41,2.0,8.0,93,0.00,,,0.00,Wunderground v.1.15,2014-01-22 04:50:00,
2014-01-21 23:55:00,61.7,59.7,29.88,NE,41,2.0,8.0,93,0.00,,,0.00,Wunderground v.1.15,2014-01-22 04:55:00,